Time;durP1;ratioP1;P1;durP2;ratioP2;P2;SDS_P1;SDS_P2;PMS_P1;PMS_P2;Temp;Humidity;BMP_temperature;BMP_pressure;BME280_temperature;BME280_humidity;BME280_pressure;Samples;Min_cycle;Max_cycle;Signal;HPM_P1;HPM_P2
2020/12/29 00:00:28;;;;;;;14.57;9.95;;;2.10;99.90;;;;;;5049673;28;20048;-55
2020/12/29 00:02:54;;;;;;;13.65;9.88;;;2.10;99.90;;;;;;5048179;28;20009;-55
2020/12/29 00:05:20;;;;;;;14.15;9.32;;;2.10;99.90;;;;;;5047697;28;20391;-54
2020/12/29 00:07:53;;;;;;;13.10;9.10;;;2.00;99.90;;;;;;5047187;28;20023;-55
2020/12/29 00:10:25;;;;;;;13.38;9.57;;;2.00;99.90;;;;;;5045966;28;20049;-52
2020/12/29 00:12:51;;;;;;;11.60;9.70;;;2.00;99.90;;;;;;5047616;28;20100;-52
2020/12/29 00:15:17;;;;;;;16.25;10.23;;;2.00;99.90;;;;;;5042880;28;20027;-51
2020/12/29 00:17:43;;;;;;;15.93;9.75;;;2.00;99.90;;;;;;5051017;28;20026;-51
2020/12/29 00:20:09;;;;;;;11.70;9.13;;;2.00;99.90;;;;;;5043711;28;20039;-51
2020/12/29 00:22:36;;;;;;;13.57;9.57;;;2.00;99.90;;;;;;5046317;28;20029;-52
2020/12/29 00:25:03;;;;;;;15.55;10.15;;;2.00;99.90;;;;;;5046145;28;20025;-52
2020/12/29 00:27:29;;;;;;;14.25;9.55;;;2.00;99.90;;;;;;5047800;28;20036;-52
2020/12/29 00:29:54;;;;;;;13.68;9.68;;;1.90;99.90;;;;;;5048692;28;20021;-52
2020/12/29 00:32:20;;;;;;;13.80;9.65;;;1.90;99.90;;;;;;5047461;28;20033;-51
2020/12/29 00:34:49;;;;;;;12.10;9.15;;;1.90;99.90;;;;;;5046938;28;20059;-52
2020/12/29 00:37:14;;;;;;;12.23;9.05;;;1.80;99.90;;;;;;5044451;28;20022;-55
2020/12/29 00:39:41;;;;;;;11.95;8.63;;;1.80;99.90;;;;;;5045796;28;20384;-54
2020/12/29 00:42:07;;;;;;;12.07;8.07;;;1.70;99.90;;;;;;5046674;28;20025;-55
2020/12/29 00:44:33;;;;;;;12.15;8.82;;;1.70;99.90;;;;;;5044168;28;20108;-53
2020/12/29 00:46:58;;;;;;;12.95;8.57;;;1.60;99.90;;;;;;5051030;28;20499;-53
2020/12/29 00:49:24;;;;;;;11.93;8.95;;;1.50;99.90;;;;;;5051622;28;20021;-51
2020/12/29 00:51:55;;;;;;;14.07;8.25;;;1.50;99.90;;;;;;5051537;28;20021;-52
2020/12/29 00:54:21;;;;;;;11.10;8.93;;;1.50;99.90;;;;;;5051586;28;20094;-50
2020/12/29 00:56:47;;;;;;;10.52;8.60;;;1.50;99.90;;;;;;5051956;28;20562;-52
2020/12/29 00:59:13;;;;;;;10.27;8.00;;;1.40;99.90;;;;;;5049381;28;20243;-51
2020/12/29 01:01:39;;;;;;;11.68;8.45;;;1.40;99.90;;;;;;5050584;28;20036;-52
2020/12/29 01:04:05;;;;;;;11.40;7.55;;;1.40;99.90;;;;;;5054303;28;20094;-51
2020/12/29 01:06:30;;;;;;;10.23;8.10;;;1.20;99.90;;;;;;5050471;28;20498;-56
2020/12/29 01:08:56;;;;;;;10.38;7.53;;;1.20;99.90;;;;;;5049572;28;20104;-52
2020/12/29 01:11:22;;;;;;;13.52;8.60;;;1.10;99.90;;;;;;5048342;28;20399;-53
2020/12/29 01:13:47;;;;;;;11.30;8.13;;;1.10;99.90;;;;;;5051303;28;20167;-53
2020/12/29 01:16:13;;;;;;;10.68;8.30;;;1.10;99.90;;;;;;5049058;28;20025;-55
2020/12/29 01:18:39;;;;;;;11.93;8.50;;;1.00;99.90;;;;;;5051317;28;20116;-55
2020/12/29 01:21:07;;;;;;;11.93;8.65;;;1.00;99.90;;;;;;5053686;28;20024;-54
2020/12/29 01:23:33;;;;;;;13.30;8.68;;;1.00;99.90;;;;;;5050712;28;20083;-52
2020/12/29 01:25:58;;;;;;;11.65;8.43;;;0.90;99.90;;;;;;5056992;28;20428;-53
2020/12/29 01:28:24;;;;;;;11.27;8.13;;;0.90;99.90;;;;;;5043023;28;20103;-53
2020/12/29 01:30:50;;;;;;;12.02;8.95;;;0.90;99.90;;;;;;5038460;28;20033;-54
2020/12/29 01:33:15;;;;;;;12.10;8.25;;;0.80;99.90;;;;;;5036275;28;20040;-54
2020/12/29 01:35:41;;;;;;;12.27;8.80;;;0.80;99.90;;;;;;5035959;28;20021;-57
2020/12/29 01:38:06;;;;;;;10.68;8.70;;;0.80;99.90;;;;;;5035804;28;20083;-57
2020/12/29 01:40:33;;;;;;;11.90;7.97;;;0.80;99.90;;;;;;5038762;28;20021;-55
2020/12/29 01:42:59;;;;;;;11.85;7.70;;;0.80;99.90;;;;;;5042323;28;20065;-57
2020/12/29 01:45:24;;;;;;;12.75;8.80;;;0.80;99.90;;;;;;5041508;28;20025;-54
2020/12/29 01:47:51;;;;;;;12.00;8.35;;;0.70;99.90;;;;;;5051873;28;20090;-54
2020/12/29 01:50:25;;;;;;;10.77;8.00;;;0.70;99.90;;;;;;5049061;28;20021;-55
2020/12/29 01:53:01;;;;;;;12.07;8.65;;;0.70;99.90;;;;;;5042774;28;20021;-57
2020/12/29 01:55:28;;;;;;;12.45;8.40;;;0.70;99.90;;;;;;5049739;28;20136;-54
2020/12/29 01:57:59;;;;;;;11.23;7.97;;;0.70;99.90;;;;;;5041531;28;20037;-57
2020/12/29 02:00:25;;;;;;;11.23;7.88;;;0.70;99.90;;;;;;5042352;28;20614;-58
2020/12/29 02:02:51;;;;;;;10.95;8.48;;;0.70;99.90;;;;;;5045846;28;20086;-57
2020/12/29 02:05:17;;;;;;;12.05;7.70;;;0.70;99.90;;;;;;5041409;28;20033;-57
2020/12/29 02:07:46;;;;;;;11.88;8.65;;;0.70;99.90;;;;;;5045679;28;20108;-56
2020/12/29 02:10:12;;;;;;;11.43;8.75;;;0.60;99.90;;;;;;5046067;28;20037;-57
2020/12/29 02:12:37;;;;;;;12.75;8.25;;;0.60;99.90;;;;;;5046178;28;20445;-57
2020/12/29 02:15:06;;;;;;;12.10;8.48;;;0.60;99.90;;;;;;5045106;28;20179;-56
2020/12/29 02:17:32;;;;;;;11.50;8.10;;;0.60;99.90;;;;;;5044238;28;20082;-55
2020/12/29 02:19:58;;;;;;;10.00;7.65;;;0.60;99.90;;;;;;5050596;28;20533;-56
2020/12/29 02:22:25;;;;;;;11.07;7.95;;;0.60;99.90;;;;;;5049187;28;20025;-56
2020/12/29 02:24:59;;;;;;;12.15;7.75;;;0.60;99.90;;;;;;5052042;28;20017;-56
2020/12/29 02:27:29;;;;;;;11.90;8.63;;;0.60;99.90;;;;;;5053322;28;20025;-58
2020/12/29 02:29:56;;;;;;;11.40;7.85;;;0.60;99.90;;;;;;5051048;28;20537;-56
2020/12/29 02:32:23;;;;;;;11.27;8.35;;;0.60;99.90;;;;;;5051824;28;20075;-54
2020/12/29 02:34:48;;;;;;;10.43;8.07;;;0.60;99.90;;;;;;5053042;22;20167;-78
2020/12/29 02:37:15;;;;;;;12.07;9.18;;;0.70;99.90;;;;;;5039070;28;20085;-80
2020/12/29 02:39:43;;;;;;;12.05;9.07;;;0.60;99.90;;;;;;5032867;28;20087;-77
2020/12/29 02:42:09;;;;;;;12.30;7.97;;;0.60;99.90;;;;;;5036156;28;20029;-78
2020/12/29 02:44:35;;;;;;;12.43;8.13;;;0.60;99.90;;;;;;5030785;28;20029;-77
2020/12/29 02:47:00;;;;;;;11.25;8.35;;;0.60;99.90;;;;;;5033538;28;20032;-77
2020/12/29 02:49:26;;;;;;;12.70;8.52;;;0.60;99.90;;;;;;5033146;28;20030;-79
2020/12/29 02:51:56;;;;;;;10.98;8.52;;;0.60;99.90;;;;;;5031803;28;20059;-81
2020/12/29 02:54:22;;;;;;;11.77;8.10;;;0.60;99.90;;;;;;5035467;28;20036;-81
2020/12/29 02:56:47;;;;;;;11.68;8.50;;;0.60;99.90;;;;;;5032504;28;20036;-80
2020/12/29 02:59:13;;;;;;;12.90;8.45;;;0.60;99.90;;;;;;5033312;28;20037;-79
2020/12/29 03:01:38;;;;;;;10.88;8.32;;;0.60;99.90;;;;;;5032371;28;20116;-78
2020/12/29 03:04:04;;;;;;;13.27;8.65;;;0.60;99.90;;;;;;5023995;28;20029;-78
2020/12/29 03:06:30;;;;;;;11.88;7.97;;;0.60;99.90;;;;;;5034111;28;20025;-78
2020/12/29 03:08:55;;;;;;;11.20;8.32;;;0.60;99.90;;;;;;5030358;28;20075;-78
2020/12/29 03:11:29;;;;;;;10.00;7.65;;;0.60;99.90;;;;;;5029388;28;20468;-78
2020/12/29 03:14:00;;;;;;;13.07;8.60;;;0.60;99.90;;;;;;5032682;28;20037;-78
2020/12/29 03:16:27;;;;;;;10.52;8.55;;;0.60;99.90;;;;;;5032769;28;20033;-78
2020/12/29 03:18:53;;;;;;;10.70;8.43;;;0.60;99.90;;;;;;5031491;28;20036;-78
2020/12/29 03:21:19;;;;;;;11.13;8.10;;;0.60;99.90;;;;;;5034189;28;20526;-79
2020/12/29 03:23:45;;;;;;;12.23;8.68;;;0.60;99.90;;;;;;5029547;28;20029;-78
2020/12/29 03:26:11;;;;;;;10.07;8.23;;;0.60;99.90;;;;;;5029225;28;20036;-78
2020/12/29 03:28:37;;;;;;;13.05;8.38;;;0.60;99.90;;;;;;5030497;28;20017;-76
2020/12/29 03:31:03;;;;;;;10.65;7.90;;;0.60;99.90;;;;;;5029779;28;20022;-77
2020/12/29 03:33:29;;;;;;;12.32;9.18;;;0.60;99.90;;;;;;5029874;28;20022;-77
2020/12/29 03:35:54;;;;;;;10.52;8.07;;;0.60;99.90;;;;;;5029772;28;20105;-76
2020/12/29 03:38:23;;;;;;;12.32;8.85;;;0.60;99.90;;;;;;5029733;28;20021;-76
2020/12/29 03:40:50;;;;;;;12.07;8.85;;;0.60;99.90;;;;;;5024668;28;20094;-79
2020/12/29 03:43:16;;;;;;;11.38;8.60;;;0.60;99.90;;;;;;5028227;28;20021;-78
2020/12/29 03:45:46;;;;;;;11.93;8.82;;;0.60;99.90;;;;;;5028839;28;20032;-78
2020/12/29 03:48:14;;;;;;;11.90;8.55;;;0.60;99.90;;;;;;5028130;28;20082;-76
2020/12/29 03:50:41;;;;;;;12.25;9.38;;;0.60;99.90;;;;;;5026678;28;20100;-76
2020/12/29 03:53:07;;;;;;;12.25;8.82;;;0.60;99.90;;;;;;5026895;28;20490;-75
2020/12/29 03:55:33;;;;;;;12.30;8.88;;;0.60;99.90;;;;;;5028044;28;20256;-76
2020/12/29 03:57:58;;;;;;;11.15;8.25;;;0.60;99.90;;;;;;5029439;28;20087;-78
2020/12/29 04:00:24;;;;;;;12.80;8.85;;;0.60;99.90;;;;;;5028570;28;20033;-78
2020/12/29 04:02:50;;;;;;;10.70;8.32;;;0.60;99.90;;;;;;5032015;28;20053;-78
2020/12/29 04:05:16;;;;;;;10.52;8.13;;;0.60;99.90;;;;;;5030872;28;20447;-77
2020/12/29 04:07:43;;;;;;;11.55;8.77;;;0.60;99.90;;;;;;5028929;28;20033;-79
2020/12/29 04:10:08;;;;;;;11.65;8.77;;;0.60;99.90;;;;;;5026038;28;20014;-79
2020/12/29 04:12:34;;;;;;;9.88;8.50;;;0.60;99.90;;;;;;5025499;28;20456;-76
2020/12/29 04:14:59;;;;;;;13.05;8.45;;;0.60;99.90;;;;;;5026744;28;20528;-76
2020/12/29 04:17:25;;;;;;;9.77;8.15;;;0.60;99.90;;;;;;5037380;28;20051;-77
2020/12/29 04:19:51;;;;;;;11.55;8.43;;;0.70;99.90;;;;;;5034820;28;20029;-76
2020/12/29 04:22:16;;;;;;;11.38;8.35;;;0.70;99.90;;;;;;5030939;28;20021;-77
2020/12/29 04:24:42;;;;;;;10.52;8.35;;;0.60;99.90;;;;;;5029669;28;20480;-77
2020/12/29 04:27:07;;;;;;;12.73;8.60;;;0.60;99.90;;;;;;5028788;28;20014;-77
2020/12/29 04:29:33;;;;;;;10.52;8.27;;;0.60;99.90;;;;;;5028662;28;20028;-77
2020/12/29 04:31:59;;;;;;;12.05;8.48;;;0.60;99.90;;;;;;5028663;28;20029;-77
2020/12/29 04:34:24;;;;;;;10.70;7.95;;;0.60;99.90;;;;;;5028879;28;20178;-77
2020/12/29 04:36:56;;;;;;;12.88;8.57;;;0.60;99.90;;;;;;5028467;28;20036;-75
2020/12/29 04:39:22;;;;;;;11.23;7.90;;;0.60;99.90;;;;;;5026148;28;20037;-76
2020/12/29 04:41:52;;;;;;;9.88;7.90;;;0.60;99.90;;;;;;5029010;28;20240;-77
2020/12/29 04:44:22;;;;;;;9.10;7.80;;;0.60;99.90;;;;;;5028723;28;20021;-77
2020/12/29 04:46:48;;;;;;;11.13;8.77;;;0.60;99.90;;;;;;5030292;28;20025;-77
2020/12/29 04:49:13;;;;;;;9.88;8.65;;;0.70;99.90;;;;;;5029687;28;20459;-77
2020/12/29 04:51:39;;;;;;;11.27;8.68;;;0.60;99.90;;;;;;5028457;28;20486;-78
2020/12/29 04:54:14;;;;;;;10.98;8.60;;;0.60;99.90;;;;;;5028716;28;20785;-76
2020/12/29 04:56:40;;;;;;;11.10;8.10;;;0.60;99.90;;;;;;5028433;28;20018;-77
2020/12/29 04:59:05;;;;;;;11.05;7.97;;;0.60;99.90;;;;;;5029558;28;20036;-79
2020/12/29 05:01:33;;;;;;;12.13;7.95;;;0.60;99.90;;;;;;5029423;28;20029;-78
2020/12/29 05:03:59;;;;;;;11.15;8.38;;;0.60;99.90;;;;;;5029590;28;20044;-78
2020/12/29 05:06:25;;;;;;;9.68;8.38;;;0.60;99.90;;;;;;5029748;28;20021;-78
2020/12/29 05:08:53;;;;;;;11.10;8.45;;;0.60;99.90;;;;;;5029898;28;20052;-78
2020/12/29 05:11:21;;;;;;;11.15;7.95;;;0.60;99.90;;;;;;5025944;28;20057;-79
2020/12/29 05:13:48;;;;;;;8.25;7.22;;;0.60;99.90;;;;;;5030213;28;20623;-79
2020/12/29 05:16:14;;;;;;;10.38;8.23;;;0.60;99.90;;;;;;5028107;28;20553;-79
2020/12/29 05:18:40;;;;;;;11.40;7.97;;;0.60;99.90;;;;;;5025739;28;20531;-76
2020/12/29 05:21:07;;;;;;;11.98;8.00;;;0.60;99.90;;;;;;5026951;28;20392;-76
2020/12/29 05:23:34;;;;;;;10.00;8.18;;;0.60;99.90;;;;;;5027126;28;20025;-76
2020/12/29 05:26:00;;;;;;;9.73;7.65;;;0.60;99.90;;;;;;5024219;28;20116;-76
2020/12/29 05:28:26;;;;;;;10.45;8.07;;;0.60;99.90;;;;;;5043408;28;20025;-76
2020/12/29 05:30:57;;;;;;;9.93;8.05;;;0.70;99.90;;;;;;5028706;28;20096;-76
2020/12/29 05:33:23;;;;;;;11.82;8.98;;;0.70;99.90;;;;;;5030772;28;20518;-76
2020/12/29 05:35:56;;;;;;;12.88;9.13;;;0.70;99.90;;;;;;5030492;28;20021;-76
2020/12/29 05:38:22;;;;;;;10.25;8.20;;;0.70;99.90;;;;;;5030429;28;20025;-76
2020/12/29 05:40:49;;;;;;;10.32;8.10;;;0.70;99.90;;;;;;5031575;28;20484;-76
2020/12/29 05:43:25;;;;;;;10.35;8.52;;;0.60;99.90;;;;;;5030380;28;20025;-76
2020/12/29 05:45:51;;;;;;;12.00;8.45;;;0.70;99.90;;;;;;5030272;28;20026;-79
2020/12/29 05:48:17;;;;;;;10.27;7.78;;;0.60;99.90;;;;;;5032467;28;20032;-78
2020/12/29 05:50:43;;;;;;;11.13;8.13;;;0.60;99.90;;;;;;5030331;28;20443;-76
2020/12/29 05:53:11;;;;;;;10.38;7.82;;;0.60;99.90;;;;;;5032207;28;20037;-76
2020/12/29 05:55:37;;;;;;;10.95;8.25;;;0.60;99.90;;;;;;5032066;28;20029;-77
2020/12/29 05:58:10;;;;;;;11.63;9.20;;;0.60;99.90;;;;;;5031586;28;20398;-76
2020/12/29 06:00:37;;;;;;;11.73;8.57;;;0.60;99.90;;;;;;5029150;28;20025;-76
2020/12/29 06:03:05;;;;;;;12.77;8.55;;;0.70;99.90;;;;;;5030695;28;20113;-76
2020/12/29 06:05:32;;;;;;;11.40;8.30;;;0.60;99.90;;;;;;5031553;28;20052;-76
2020/12/29 06:08:00;;;;;;;12.27;8.35;;;0.70;99.90;;;;;;5030098;28;20017;-75
2020/12/29 06:10:28;;;;;;;11.20;8.05;;;0.70;99.90;;;;;;5026019;28;20048;-77
2020/12/29 06:12:58;;;;;;;12.20;8.60;;;0.70;99.90;;;;;;5029867;28;20160;-77
2020/12/29 06:15:35;;;;;;;13.23;8.93;;;0.70;99.90;;;;;;5027225;28;20506;-77
2020/12/29 06:18:08;;;;;;;10.25;8.15;;;0.70;99.90;;;;;;5030992;28;20022;-77
2020/12/29 06:20:35;;;;;;;12.18;8.93;;;0.70;99.90;;;;;;5046260;28;20025;-76
2020/12/29 06:23:02;;;;;;;11.50;8.95;;;0.70;99.90;;;;;;5030071;28;20172;-77
2020/12/29 06:25:36;;;;;;;13.18;9.57;;;0.70;99.90;;;;;;5029835;28;20017;-76
2020/12/29 06:28:04;;;;;;;11.95;9.07;;;0.70;99.90;;;;;;5030421;28;20024;-77
2020/12/29 06:30:32;;;;;;;12.00;9.38;;;0.60;99.90;;;;;;5030157;28;20048;-77
2020/12/29 06:32:59;;;;;;;13.35;8.65;;;0.60;99.90;;;;;;5029882;28;20025;-77
2020/12/29 06:35:25;;;;;;;16.17;10.48;;;0.70;99.90;;;;;;5025407;28;20034;-77
2020/12/29 06:37:53;;;;;;;14.68;9.93;;;0.70;99.90;;;;;;5029160;28;20029;-76
2020/12/29 06:40:22;;;;;;;14.23;9.80;;;0.70;99.90;;;;;;5040665;28;20068;-77
2020/12/29 06:42:48;;;;;;;14.60;10.07;;;0.70;99.90;;;;;;5026887;28;20607;-76
2020/12/29 06:45:14;;;;;;;12.38;9.25;;;0.70;99.90;;;;;;5047256;28;20907;-77
2020/12/29 06:47:43;;;;;;;11.43;8.40;;;0.70;99.90;;;;;;5033551;28;20037;-77
2020/12/29 06:50:24;;;;;;;12.25;9.38;;;0.70;99.90;;;;;;5043285;28;20059;-77
2020/12/29 06:53:01;;;;;;;12.90;9.77;;;0.70;99.90;;;;;;5029395;28;20056;-76
2020/12/29 06:55:29;;;;;;;12.70;9.00;;;0.70;99.90;;;;;;5033498;28;20033;-77
2020/12/29 06:57:54;;;;;;;13.65;9.13;;;0.70;99.90;;;;;;5029385;28;20028;-77
2020/12/29 07:00:22;;;;;;;12.15;9.02;;;0.70;99.90;;;;;;5030442;28;20060;-77
2020/12/29 07:02:50;;;;;;;12.43;9.27;;;0.70;99.90;;;;;;5030391;28;20026;-77
2020/12/29 07:05:16;;;;;;;11.82;9.10;;;0.80;99.90;;;;;;5034772;28;20048;-77
2020/12/29 07:07:54;;;;;;;14.05;9.55;;;0.70;99.90;;;;;;5031160;28;20013;-77
2020/12/29 07:10:20;;;;;;;12.70;9.75;;;0.80;99.90;;;;;;5042916;28;20017;-77
2020/12/29 07:12:51;;;;;;;14.57;9.25;;;0.80;99.90;;;;;;5030482;28;20032;-77
2020/12/29 07:15:20;;;;;;;13.93;9.88;;;0.80;99.90;;;;;;5038355;28;20132;-77
2020/12/29 07:18:04;;;;;;;13.57;10.15;;;0.70;99.90;;;;;;5046648;28;20083;-77
2020/12/29 07:20:35;;;;;;;12.27;9.65;;;0.80;99.90;;;;;;5037728;28;20018;-77
2020/12/29 07:23:06;;;;;;;13.25;8.98;;;0.80;99.90;;;;;;5029299;28;20026;-77
2020/12/29 07:25:34;;;;;;;13.30;9.88;;;0.80;99.90;;;;;;5030849;28;20029;-77
2020/12/29 07:28:03;;;;;;;11.05;8.30;;;0.80;99.90;;;;;;5029457;28;20022;-77
2020/12/29 07:30:30;;;;;;;14.45;10.10;;;0.80;99.90;;;;;;5029366;28;20049;-77
2020/12/29 07:33:02;;;;;;;12.00;8.55;;;0.80;99.90;;;;;;5030618;28;20079;-77
2020/12/29 07:35:30;;;;;;;15.27;10.68;;;0.80;99.90;;;;;;5029119;28;20388;-77
2020/12/29 07:37:57;;;;;;;15.98;10.25;;;0.80;99.90;;;;;;5025563;28;20547;-77
2020/12/29 07:40:26;;;;;;;14.95;10.48;;;0.80;99.90;;;;;;5028845;28;20569;-77
2020/12/29 07:42:52;;;;;;;13.80;9.40;;;0.80;99.90;;;;;;5045226;28;20071;-77
2020/12/29 07:45:18;;;;;;;14.88;9.93;;;0.80;99.90;;;;;;5028655;28;20024;-78
2020/12/29 07:47:43;;;;;;;16.48;9.45;;;0.80;99.90;;;;;;5028836;28;20096;-77
2020/12/29 07:50:09;;;;;;;13.35;9.70;;;0.80;99.90;;;;;;5028841;28;20047;-77
2020/12/29 07:52:34;;;;;;;14.50;10.18;;;0.80;99.90;;;;;;5028588;28;20033;-78
2020/12/29 07:55:08;;;;;;;15.95;9.98;;;0.90;99.90;;;;;;5045282;28;20021;-77
2020/12/29 07:57:34;;;;;;;14.77;10.18;;;0.80;99.90;;;;;;5030370;28;20018;-78
2020/12/29 08:00:11;;;;;;;14.63;10.27;;;0.90;99.90;;;;;;5039071;28;20045;-79
2020/12/29 08:02:37;;;;;;;14.77;9.55;;;0.90;99.90;;;;;;5020038;28;20030;-78
2020/12/29 08:05:04;;;;;;;13.93;9.35;;;0.90;99.90;;;;;;5029201;28;20025;-77
2020/12/29 08:07:30;;;;;;;14.63;11.32;;;0.90;99.90;;;;;;5029028;28;20495;-78
2020/12/29 08:09:56;;;;;;;12.70;9.43;;;0.90;99.90;;;;;;5028768;28;20051;-78
2020/12/29 08:12:21;;;;;;;18.77;11.35;;;0.90;99.90;;;;;;5028207;28;20483;-78
2020/12/29 08:14:47;;;;;;;18.25;10.85;;;0.90;99.90;;;;;;5028913;28;20032;-78
2020/12/29 08:17:13;;;;;;;15.48;10.55;;;1.00;99.90;;;;;;5028628;28;20071;-77
2020/12/29 08:19:38;;;;;;;18.48;10.90;;;1.00;99.90;;;;;;5030141;28;20021;-78
2020/12/29 08:22:09;;;;;;;16.08;11.27;;;1.00;99.90;;;;;;5030276;28;20022;-78
2020/12/29 08:24:36;;;;;;;16.08;10.93;;;1.00;99.90;;;;;;5039564;28;20026;-78
2020/12/29 08:27:02;;;;;;;17.23;10.93;;;1.00;99.90;;;;;;5043399;28;20491;-78
2020/12/29 08:29:30;;;;;;;16.05;10.13;;;1.00;99.90;;;;;;5040346;28;20022;-81
2020/12/29 08:32:09;;;;;;;18.50;11.25;;;1.10;99.90;;;;;;5029765;28;20087;-79
2020/12/29 08:34:38;;;;;;;19.63;12.20;;;1.10;99.90;;;;;;5026924;28;20036;-78
2020/12/29 08:37:06;;;;;;;16.80;11.07;;;1.10;99.90;;;;;;5038429;28;20032;-78
2020/12/29 08:39:47;;;;;;;18.02;10.98;;;1.10;99.90;;;;;;5035830;28;20022;-78
2020/12/29 08:42:16;;;;;;;18.90;12.40;;;1.10;99.90;;;;;;5045205;28;20029;-78
2020/12/29 08:44:43;;;;;;;20.55;12.43;;;1.10;99.90;;;;;;5029376;28;20033;-78
2020/12/29 08:47:14;;;;;;;17.67;12.15;;;1.10;99.90;;;;;;5037454;28;20024;-78
2020/12/29 08:49:39;;;;;;;19.05;11.82;;;1.20;99.90;;;;;;5036622;28;20021;-78
2020/12/29 08:52:05;;;;;;;21.55;12.82;;;1.10;99.90;;;;;;5045845;28;20550;-78
2020/12/29 08:54:38;;;;;;;17.80;12.50;;;1.20;99.90;;;;;;5046017;28;20021;-77
2020/12/29 08:57:06;;;;;;;22.05;13.52;;;1.20;99.90;;;;;;5037825;28;20033;-78
2020/12/29 08:59:41;;;;;;;24.17;13.48;;;1.30;99.90;;;;;;5040691;28;20033;-78
2020/12/29 09:02:07;;;;;;;20.23;13.77;;;1.30;99.90;;;;;;5029474;28;20598;-78
2020/12/29 09:04:36;;;;;;;23.92;15.02;;;1.30;99.90;;;;;;5029089;28;20075;-78
2020/12/29 09:07:08;;;;;;;24.30;15.18;;;1.30;99.90;;;;;;5037878;28;20021;-78
2020/12/29 09:09:37;;;;;;;23.52;14.82;;;1.40;99.90;;;;;;5034323;28;20041;-78
2020/12/29 09:12:13;;;;;;;21.40;15.98;;;1.40;99.90;;;;;;5048127;28;20117;-78
2020/12/29 09:14:53;;;;;;;25.35;15.18;;;1.40;99.90;;;;;;5031000;28;20033;-78
2020/12/29 09:17:21;;;;;;;23.25;15.43;;;1.40;99.90;;;;;;5017515;28;20392;-78
2020/12/29 09:20:21;;;;;;;21.88;14.07;;;1.50;99.90;;;;;;5044315;28;20029;-77
2020/12/29 09:22:54;;;;;;;24.48;16.27;;;1.50;99.90;;;;;;5033432;28;20083;-77
2020/12/29 09:25:21;;;;;;;26.52;15.23;;;1.50;99.90;;;;;;5035445;28;20071;-78
2020/12/29 09:27:46;;;;;;;23.10;15.57;;;1.60;99.90;;;;;;5033728;28;20579;-78
2020/12/29 09:30:13;;;;;;;24.48;15.85;;;1.60;99.90;;;;;;5038455;28;20083;-78
2020/12/29 09:32:39;;;;;;;28.17;16.00;;;1.60;99.90;;;;;;5031112;28;20017;-78
2020/12/29 09:37:50;;;;;;;28.92;18.58;;;1.70;99.90;;;;;;5032585;28;20029;-78
2020/12/29 09:40:15;;;;;;;26.90;16.38;;;1.70;99.90;;;;;;5045932;28;20019;-78
2020/12/29 09:42:41;;;;;;;26.20;16.85;;;1.80;99.90;;;;;;5030946;28;20460;-78
2020/12/29 09:45:06;;;;;;;26.58;15.98;;;1.80;99.90;;;;;;5047034;28;20605;-78
2020/12/29 09:47:32;;;;;;;29.17;17.55;;;1.80;99.90;;;;;;5032065;28;20029;-78
2020/12/29 09:49:57;;;;;;;31.00;17.98;;;1.80;99.90;;;;;;5033306;28;20021;-78
2020/12/29 09:52:23;;;;;;;28.73;17.23;;;1.90;99.90;;;;;;5048627;28;20510;-78
2020/12/29 09:54:48;;;;;;;24.40;18.10;;;1.90;99.90;;;;;;5030986;28;20483;-78
2020/12/29 09:57:14;;;;;;;32.45;19.98;;;1.90;99.90;;;;;;5031761;28;20033;-78
2020/12/29 09:59:39;;;;;;;32.05;20.30;;;1.90;99.90;;;;;;5047892;28;20049;-78
2020/12/29 10:02:05;;;;;;;30.33;20.75;;;2.00;99.90;;;;;;5047309;28;20030;-78
2020/12/29 10:04:30;;;;;;;32.50;20.40;;;2.00;99.90;;;;;;5030461;28;20037;-78
2020/12/29 10:06:56;;;;;;;29.95;19.13;;;2.10;99.90;;;;;;5045586;28;20033;-78
2020/12/29 10:09:22;;;;;;;33.85;21.63;;;2.10;99.90;;;;;;5047690;28;20040;-78
2020/12/29 10:11:47;;;;;;;31.38;20.55;;;2.10;99.90;;;;;;5032363;28;20029;-78
2020/12/29 10:14:13;;;;;;;29.63;19.38;;;2.20;99.90;;;;;;5047762;28;20033;-78
2020/12/29 10:16:38;;;;;;;30.23;19.92;;;2.20;99.90;;;;;;5029429;28;20032;-78
2020/12/29 10:19:04;;;;;;;31.88;20.60;;;2.30;99.90;;;;;;5032539;28;20033;-77
2020/12/29 10:21:29;;;;;;;32.33;19.83;;;2.30;99.90;;;;;;5030450;28;20025;-78
2020/12/29 10:23:55;;;;;;;33.08;20.92;;;2.40;99.90;;;;;;5032463;28;20687;-78
2020/12/29 10:26:20;;;;;;;31.40;19.42;;;2.40;99.90;;;;;;5046952;28;20447;-78
2020/12/29 10:28:46;;;;;;;29.25;20.23;;;2.50;99.90;;;;;;5032203;28;20092;-78
2020/12/29 10:31:11;;;;;;;32.95;21.52;;;2.50;99.90;;;;;;5031830;28;20666;-79
2020/12/29 10:33:37;;;;;;;29.38;19.00;;;2.50;99.90;;;;;;5033155;28;20060;-78
2020/12/29 10:36:02;;;;;;;28.60;19.45;;;2.60;99.90;;;;;;5032111;28;20031;-78
2020/12/29 10:38:28;;;;;;;24.60;17.90;;;2.60;99.90;;;;;;5031985;28;20030;-78
2020/12/29 10:40:53;;;;;;;25.02;18.70;;;2.60;99.90;;;;;;5031994;28;20118;-78
2020/12/29 10:43:19;;;;;;;27.15;19.50;;;2.60;99.90;;;;;;5047078;28;20025;-77
2020/12/29 10:45:44;;;;;;;26.30;17.45;;;2.60;99.90;;;;;;5039794;28;20028;-78
2020/12/29 10:48:10;;;;;;;24.80;18.67;;;2.60;99.90;;;;;;5042533;28;20029;-77
2020/12/29 10:50:35;;;;;;;23.75;16.88;;;2.60;99.90;;;;;;5044973;28;20029;-77
2020/12/29 10:53:01;;;;;;;24.15;18.23;;;2.60;99.90;;;;;;5039489;28;20044;-78
2020/12/29 10:55:26;;;;;;;26.23;17.25;;;2.60;99.90;;;;;;5037978;28;20033;-78
2020/12/29 10:57:53;;;;;;;23.92;16.55;;;2.70;99.90;;;;;;5044022;28;20033;-77
2020/12/29 11:00:19;;;;;;;22.33;16.88;;;2.70;99.90;;;;;;5045987;28;20496;-78
2020/12/29 11:02:44;;;;;;;24.50;17.13;;;2.70;99.90;;;;;;5028928;28;20060;-77
2020/12/29 11:05:10;;;;;;;24.65;17.95;;;2.70;99.90;;;;;;5045684;28;20052;-77
2020/12/29 11:07:35;;;;;;;25.25;16.63;;;2.70;99.90;;;;;;5030792;28;20017;-77
2020/12/29 11:10:01;;;;;;;22.20;17.27;;;2.80;99.90;;;;;;5045297;28;20109;-77
2020/12/29 11:12:26;;;;;;;24.20;17.55;;;2.80;99.90;;;;;;5025779;28;20479;-77
2020/12/29 11:14:52;;;;;;;26.30;17.80;;;2.80;99.90;;;;;;5029267;28;20037;-77
2020/12/29 11:17:17;;;;;;;23.35;17.02;;;2.80;99.90;;;;;;5030142;28;20026;-77
2020/12/29 11:19:43;;;;;;;24.05;17.08;;;2.80;99.90;;;;;;5032764;28;20044;-77
2020/12/29 11:22:08;;;;;;;24.95;17.67;;;2.90;99.90;;;;;;5032423;28;20074;-77
2020/12/29 11:24:34;;;;;;;23.70;17.65;;;2.90;99.90;;;;;;5040450;28;20022;-77
2020/12/29 11:26:59;;;;;;;24.85;16.55;;;3.00;99.90;;;;;;5036259;28;20032;-77
2020/12/29 11:29:25;;;;;;;24.65;17.15;;;3.00;99.90;;;;;;5033888;28;20124;-78
2020/12/29 11:31:50;;;;;;;23.77;17.77;;;3.00;99.90;;;;;;5041883;28;20045;-78
2020/12/29 11:34:16;;;;;;;21.85;16.20;;;3.10;99.90;;;;;;5034804;28;20120;-77
2020/12/29 11:36:41;;;;;;;24.17;15.65;;;3.00;99.90;;;;;;5031288;28;20068;-77
2020/12/29 11:39:07;;;;;;;23.63;16.38;;;3.10;99.90;;;;;;5029459;28;20057;-77
2020/12/29 11:41:33;;;;;;;24.25;16.98;;;3.10;99.90;;;;;;5044448;28;20115;-78
2020/12/29 11:43:58;;;;;;;20.73;15.68;;;3.20;99.90;;;;;;5027540;28;20033;-77
2020/12/29 11:46:24;;;;;;;22.23;15.05;;;3.20;99.90;;;;;;5027218;28;20036;-77
2020/12/29 11:48:49;;;;;;;21.05;15.48;;;3.20;99.90;;;;;;5029645;28;20022;-77
2020/12/29 11:51:15;;;;;;;20.25;15.35;;;3.20;99.90;;;;;;5030278;28;20018;-77
2020/12/29 11:53:40;;;;;;;20.25;15.35;;;3.20;99.90;;;;;;5031546;28;20030;-77
2020/12/29 11:56:09;;;;;;;19.73;14.88;;;3.30;99.90;;;;;;5044602;28;20025;-78
2020/12/29 11:58:35;;;;;;;22.88;16.08;;;3.30;99.90;;;;;;5029870;28;20034;-78
2020/12/29 12:01:00;;;;;;;20.05;14.45;;;3.30;99.90;;;;;;5031081;28;20036;-77
2020/12/29 12:03:26;;;;;;;20.52;14.27;;;3.30;99.90;;;;;;5028152;28;20025;-77
2020/12/29 12:05:51;;;;;;;18.58;13.48;;;3.40;99.90;;;;;;5027767;28;20036;-77
2020/12/29 12:08:18;;;;;;;19.88;14.27;;;3.40;99.90;;;;;;5045316;28;20035;-77
2020/12/29 12:10:43;;;;;;;18.23;13.60;;;3.40;99.90;;;;;;5027069;28;20125;-78
2020/12/29 12:13:09;;;;;;;20.90;14.43;;;3.30;99.90;;;;;;5026575;28;20115;-77
2020/12/29 12:15:35;;;;;;;20.25;14.05;;;3.40;99.90;;;;;;5028901;28;20491;-78
2020/12/29 12:18:00;;;;;;;18.05;13.23;;;3.40;99.90;;;;;;5027667;28;20079;-77
2020/12/29 12:20:26;;;;;;;18.73;13.77;;;3.40;99.90;;;;;;5028232;28;20032;-78
2020/12/29 12:22:51;;;;;;;17.77;14.07;;;3.40;99.90;;;;;;5027626;28;20036;-78
2020/12/29 12:25:17;;;;;;;19.27;13.98;;;3.50;99.90;;;;;;5027644;28;20037;-77
2020/12/29 12:27:43;;;;;;;17.88;13.13;;;3.50;99.90;;;;;;5020073;28;20021;-77
2020/12/29 12:30:09;;;;;;;15.80;12.73;;;3.50;99.90;;;;;;5028228;28;20044;-77
2020/12/29 12:32:34;;;;;;;17.52;13.25;;;3.50;99.90;;;;;;5039667;28;20021;-78
2020/12/29 12:35:00;;;;;;;15.68;13.45;;;3.50;99.90;;;;;;5040139;28;20068;-77
2020/12/29 12:37:26;;;;;;;15.52;12.65;;;3.50;99.90;;;;;;5045100;28;20102;-77
2020/12/29 12:39:51;;;;;;;13.07;11.55;;;3.50;99.90;;;;;;5049522;28;20563;-77
2020/12/29 12:42:20;;;;;;;15.68;12.02;;;3.50;99.90;;;;;;5034357;28;20025;-77
2020/12/29 12:44:46;;;;;;;15.00;12.02;;;3.50;99.90;;;;;;5031260;28;20026;-78